Time;durP1;ratioP1;P1;durP2;ratioP2;P2;SDS_P1;SDS_P2;PMS_P1;PMS_P2;Temp;Humidity;BMP_temperature;BMP_pressure;BME280_temperature;BME280_humidity;BME280_pressure;Samples;Min_cycle;Max_cycle;Signal;HPM_P1;HPM_P2
2022/01/25 00:28:27;;;;;;;89.53;31.50;;;-1.10;99.90;;;;;;4994721;28;20190;-84
2022/01/25 00:31:04;;;;;;;71.10;30.07;;;-2.90;99.90;;;;;;4994774;28;20178;-82
2022/01/25 00:33:33;;;;;;;63.97;26.50;;;-3.40;99.90;;;;;;4994987;28;20189;-82
2022/01/25 00:36:01;;;;;;;84.10;30.83;;;-3.30;99.90;;;;;;4993362;28;20181;-83
2022/01/25 00:38:27;;;;;;;77.37;31.33;;;-2.30;99.90;;;;;;4994949;28;20189;-83
2022/01/25 00:40:53;;;;;;;72.67;28.20;;;-3.20;99.90;;;;;;4994814;28;20195;-83
2022/01/25 00:43:24;;;;;;;82.20;32.23;;;-1.50;99.90;;;;;;4993302;28;20577;-83
2022/01/25 00:45:52;;;;;;;65.77;27.60;;;-3.20;99.90;;;;;;4993295;28;20282;-83
2022/01/25 00:48:29;;;;;;;53.23;23.33;;;-3.20;99.90;;;;;;4977533;28;20642;-83
2022/01/25 00:51:04;;;;;;;61.80;28.77;;;-3.30;99.90;;;;;;4994551;28;20300;-83
2022/01/25 00:56:14;;;;;;;72.93;28.73;;;;;;;;;;4994029;28;20278;-83
2022/01/25 00:58:39;;;;;;;47.60;19.00;;;-3.20;99.90;;;;;;4994424;28;20174;-83
2022/01/25 01:01:05;;;;;;;50.10;21.03;;;-3.10;99.90;;;;;;4977125;28;20193;-83
2022/01/25 01:03:31;;;;;;;75.93;30.50;;;-2.50;99.90;;;;;;4994755;28;20179;-84
2022/01/25 01:05:56;;;;;;;73.27;30.17;;;-3.20;99.90;;;;;;5001409;28;20182;-84
2022/01/25 01:08:22;;;;;;;67.23;30.27;;;-2.90;99.90;;;;;;5004617;28;20184;-83
2022/01/25 01:10:47;;;;;;;66.30;28.63;;;-3.20;99.90;;;;;;5004287;28;20194;-84
2022/01/25 01:38:21;;;;;;;89.93;32.63;;;-3.00;99.90;;;;;;4996807;28;20282;-84
2022/01/25 01:43:35;;;;;;;74.40;29.57;;;-0.90;99.90;;;;;;5017902;28;20218;-84
2022/01/25 01:48:32;;;;;;;79.90;33.00;;;-1.50;99.90;;;;;;5018203;28;20189;-82
2022/01/25 01:51:49;;;;;;;73.00;32.17;;;-0.80;99.90;;;;;;4989836;28;20614;-83
2022/01/25 01:53:47;;;;;;;68.20;29.30;;;-2.90;99.90;;;;;;4986296;28;20683;-82
2022/01/25 01:56:13;;;;;;;75.83;30.70;;;-2.00;99.90;;;;;;4976023;28;20191;-83
2022/01/25 01:58:39;;;;;;;84.13;30.33;;;-1.90;99.90;;;;;;4977741;28;20202;-83
2022/01/25 02:01:09;;;;;;;51.17;24.53;;;-2.80;99.90;;;;;;4993222;28;20179;-83
2022/01/25 02:03:35;;;;;;;80.90;32.83;;;-2.00;99.90;;;;;;4992168;28;20252;-83
2022/01/25 02:06:02;;;;;;;79.30;34.03;;;-2.80;99.90;;;;;;4993651;28;20182;-84
2022/01/25 02:08:27;;;;;;;84.67;32.50;;;-0.90;99.90;;;;;;4976284;28;20230;-83
2022/01/25 02:10:53;;;;;;;85.97;34.17;;;-1.20;99.90;;;;;;4976544;28;20179;-84
2022/01/25 02:13:19;;;;;;;89.90;34.13;;;;;;;;;;4997322;28;20217;-84
2022/01/25 02:15:47;;;;;;;82.37;33.90;;;-2.80;99.90;;;;;;4993570;28;20249;-82
2022/01/25 02:23:44;;;;;;;77.63;30.80;;;-2.70;99.90;;;;;;4993395;28;20202;-83
2022/01/25 02:26:11;;;;;;;52.33;24.73;;;-1.20;99.90;;;;;;4975981;28;20212;-83
2022/01/25 02:28:40;;;;;;;47.03;21.17;;;-1.30;99.90;;;;;;4995695;28;20182;-83
2022/01/25 02:31:09;;;;;;;89.03;33.27;;;-0.90;99.90;;;;;;4996057;28;20181;-83
2022/01/25 02:33:36;;;;;;;70.63;30.10;;;-1.00;99.90;;;;;;4997613;28;20190;-82
2022/01/25 02:36:05;;;;;;;96.57;37.57;;;-0.60;99.90;;;;;;4996517;28;20191;-83
2022/01/25 02:38:32;;;;;;;95.27;38.63;;;-2.70;99.90;;;;;;4996759;28;20185;-83
2022/01/25 02:40:59;;;;;;;76.03;33.67;;;-1.00;99.90;;;;;;4996315;28;20179;-84
2022/01/25 02:43:26;;;;;;;73.73;30.77;;;;;;;;;;4995445;28;20273;-83
2022/01/25 02:48:59;;;;;;;100.40;36.47;;;-0.90;99.90;;;;;;4960228;28;20664;-83
2022/01/25 02:51:27;;;;;;;87.23;36.63;;;-1.90;99.90;;;;;;4995517;28;20272;-83
2022/01/25 02:53:54;;;;;;;71.93;30.80;;;-2.80;99.90;;;;;;4996654;28;20187;-83
2022/01/25 02:56:20;;;;;;;68.63;29.40;;;-1.90;99.90;;;;;;4994929;28;20322;-84
2022/01/25 02:58:46;;;;;;;94.90;38.80;;;-2.80;99.90;;;;;;4995128;28;20187;-83
2022/01/25 03:01:13;;;;;;;50.83;22.33;;;-2.60;99.90;;;;;;4995149;28;20266;-84
2022/01/25 03:03:39;;;;;;;91.43;36.93;;;-0.90;99.90;;;;;;4996643;28;20193;-83
2022/01/25 03:06:05;;;;;;;94.63;39.27;;;-0.70;99.90;;;;;;4994742;28;20643;-83
2022/01/25 03:08:31;;;;;;;93.63;35.67;;;-0.90;99.90;;;;;;4996053;28;20258;-83
2022/01/25 03:10:57;;;;;;;92.47;38.43;;;-0.60;99.90;;;;;;4994971;28;20182;-83
2022/01/25 03:13:29;;;;;;;95.80;39.03;;;;;;;;;;4994393;28;20273;-83
2022/01/25 03:16:03;;;;;;;88.47;36.70;;;-2.80;99.90;;;;;;4979696;28;20245;-83
2022/01/25 03:21:04;;;;;;;85.13;33.97;;;-0.70;99.90;;;;;;4996031;28;20196;-83
2022/01/25 03:23:31;;;;;;;92.57;37.73;;;-1.60;99.90;;;;;;4994948;28;20644;-83
2022/01/25 03:25:57;;;;;;;91.23;39.30;;;-0.80;99.90;;;;;;4994601;28;20176;-83
2022/01/25 03:28:23;;;;;;;94.90;39.77;;;-1.60;99.90;;;;;;4995930;28;20220;-83
2022/01/25 03:30:49;;;;;;;96.53;41.77;;;-0.60;99.90;;;;;;4994649;28;20183;-82
2022/01/25 03:33:17;;;;;;;93.07;40.17;;;-2.10;99.90;;;;;;4995545;28;20202;-83
2022/01/25 03:35:44;;;;;;;95.77;39.00;;;-1.70;99.90;;;;;;4994728;28;20188;-83
2022/01/25 03:38:10;;;;;;;105.27;41.27;;;-2.80;99.90;;;;;;4995347;28;20180;-83
2022/01/25 03:40:35;;;;;;;93.77;40.53;;;-1.40;99.90;;;;;;4995447;28;20182;-83
2022/01/25 03:43:05;;;;;;;99.47;39.80;;;-2.20;99.90;;;;;;4994922;28;20191;-83
2022/01/25 03:45:33;;;;;;;58.77;26.60;;;-1.50;99.90;;;;;;4994409;28;20174;-83
2022/01/25 03:50:42;;;;;;;97.33;42.27;;;-2.80;99.90;;;;;;4995736;28;20191;-82
2022/01/25 03:53:09;;;;;;;81.23;36.87;;;-1.50;99.90;;;;;;4994620;28;20217;-84
2022/01/25 03:55:35;;;;;;;83.60;37.40;;;-2.50;99.90;;;;;;4994136;28;20180;-83
2022/01/25 03:58:01;;;;;;;100.13;42.70;;;-2.70;99.90;;;;;;4978459;28;20582;-83
2022/01/25 04:00:26;;;;;;;100.07;40.93;;;-2.70;99.90;;;;;;4994148;28;20186;-83
2022/01/25 04:03:00;;;;;;;106.73;42.77;;;-2.80;99.90;;;;;;4961624;28;20199;-83
2022/01/25 04:06:01;;;;;;;90.87;40.93;;;-0.30;99.90;;;;;;4963649;28;20585;-83
2022/01/25 04:08:19;;;;;;;104.00;41.90;;;-2.80;99.90;;;;;;4990042;28;20522;-84
2022/01/25 04:10:46;;;;;;;106.67;47.30;;;-2.80;99.90;;;;;;4977793;28;20187;-84
2022/01/25 04:13:11;;;;;;;103.07;40.70;;;-2.60;99.90;;;;;;4994725;28;20245;-84
2022/01/25 04:15:44;;;;;;;91.43;37.13;;;-1.10;99.90;;;;;;4994648;28;20610;-83
2022/01/25 04:20:40;;;;;;;93.63;40.87;;;-2.70;99.90;;;;;;4994940;28;20193;-84
2022/01/25 04:25:50;;;;;;;105.90;42.87;;;-1.90;99.90;;;;;;4980323;28;20243;-83
2022/01/25 04:28:15;;;;;;;67.80;28.93;;;-2.60;99.90;;;;;;4945151;28;20583;-83
2022/01/25 04:30:41;;;;;;;92.87;38.43;;;-2.60;99.90;;;;;;4961136;28;20191;-83
2022/01/25 04:33:18;;;;;;;52.77;25.60;;;-2.50;99.90;;;;;;4945094;28;20691;-83
2022/01/25 04:49:25;;;;;;;101.47;38.37;;;-1.90;99.90;;;;;;4979949;28;20194;-83
2022/01/25 04:52:03;;;;;;;105.93;44.83;;;-0.70;99.90;;;;;;4976818;28;20226;-83
2022/01/25 04:57:40;;;;;;;102.40;42.57;;;-2.50;99.90;;;;;;4994263;28;20262;-85
2022/01/25 05:00:29;;;;;;;79.80;35.63;;;-0.60;99.90;;;;;;4994443;28;20183;-84
2022/01/25 05:03:07;;;;;;;139.80;56.37;;;-2.50;99.90;;;;;;4980607;28;20708;-83
2022/01/25 05:05:52;;;;;;;100.23;41.40;;;-2.50;99.90;;;;;;4964444;28;20174;-83
2022/01/25 05:08:30;;;;;;;103.23;48.37;;;-2.40;99.90;;;;;;4976680;28;20240;-84
2022/01/25 05:11:26;;;;;;;106.37;42.30;;;-2.40;99.90;;;;;;4976759;28;20211;-83
2022/01/25 05:13:59;;;;;;;115.40;47.37;;;-1.70;99.90;;;;;;4978913;28;20195;-84
2022/01/25 05:19:04;;;;;;;92.03;37.93;;;-2.40;99.90;;;;;;4994366;28;20243;-83
2022/01/25 05:24:15;;;;;;;71.07;30.20;;;-2.40;99.90;;;;;;4994066;28;20199;-83
2022/01/25 05:26:42;;;;;;;94.23;40.03;;;-1.70;99.90;;;;;;4993673;28;20493;-83
2022/01/25 05:29:08;;;;;;;112.10;47.63;;;-2.30;99.90;;;;;;4993694;28;20257;-83
2022/01/25 05:31:34;;;;;;;116.03;48.77;;;-2.40;99.90;;;;;;4993594;28;20209;-83
2022/01/25 05:34:00;;;;;;;110.37;45.20;;;-2.50;99.90;;;;;;4976308;28;20185;-84
2022/01/25 05:36:26;;;;;;;110.93;43.83;;;-2.40;99.90;;;;;;4975943;28;20186;-84
2022/01/25 05:38:52;;;;;;;101.97;46.50;;;-0.30;99.90;;;;;;4993701;28;20183;-83
2022/01/25 05:41:17;;;;;;;122.67;48.97;;;-1.60;99.90;;;;;;4960372;28;20243;-84
2022/01/25 05:46:41;;;;;;;99.37;43.50;;;-0.70;99.90;;;;;;4993534;28;20171;-83
2022/01/25 05:49:07;;;;;;;105.27;43.97;;;-1.20;99.90;;;;;;4976380;28;20192;-83
2022/01/25 05:51:32;;;;;;;89.63;39.97;;;-2.40;99.90;;;;;;4976271;28;20609;-83
2022/01/25 05:53:58;;;;;;;102.70;45.33;;;0.10;99.90;;;;;;4993447;28;20186;-83
2022/01/25 05:56:24;;;;;;;109.90;46.90;;;-2.10;99.90;;;;;;4975971;28;20552;-84
2022/01/25 05:58:49;;;;;;;123.10;48.97;;;-1.70;99.90;;;;;;4993832;28;20662;-82
2022/01/25 06:01:17;;;;;;;94.63;39.33;;;-2.30;99.90;;;;;;4974703;28;20197;-83
2022/01/25 06:03:45;;;;;;;112.37;43.87;;;-1.00;99.90;;;;;;4992824;28;20194;-83
2022/01/25 06:06:11;;;;;;;119.97;49.70;;;;;;;;;;4989242;28;20190;-83
2022/01/25 06:08:37;;;;;;;109.23;45.37;;;-2.30;99.90;;;;;;4991601;28;20702;-83
2022/01/25 06:11:03;;;;;;;113.17;47.23;;;-2.00;99.90;;;;;;4978616;28;20229;-82
2022/01/25 06:13:28;;;;;;;119.97;46.93;;;-0.60;99.90;;;;;;4991507;28;20668;-83
2022/01/25 06:15:54;;;;;;;119.43;48.83;;;-2.20;99.90;;;;;;4962323;28;20246;-82
2022/01/25 06:18:19;;;;;;;113.27;46.80;;;-2.20;99.90;;;;;;4978465;28;20211;-82
2022/01/25 06:20:45;;;;;;;110.03;45.00;;;-0.40;99.90;;;;;;4995713;28;20694;-83
2022/01/25 06:23:11;;;;;;;118.10;50.20;;;-0.50;99.90;;;;;;4977613;28;20197;-85
2022/01/25 06:25:36;;;;;;;117.77;49.50;;;-2.10;99.90;;;;;;4994480;28;20190;-82
2022/01/25 06:28:02;;;;;;;118.57;51.43;;;-0.10;99.90;;;;;;4985571;28;20227;-84
2022/01/25 06:30:28;;;;;;;127.10;50.87;;;-2.10;99.90;;;;;;4999884;28;20279;-83
2022/01/25 06:32:54;;;;;;;117.30;48.33;;;-2.10;99.90;;;;;;4971212;28;20631;-84
2022/01/25 06:35:19;;;;;;;114.93;51.07;;;-1.50;99.90;;;;;;4995223;28;20196;-85
2022/01/25 06:37:46;;;;;;;127.30;50.97;;;;;;;;;;4982960;28;20193;-85
2022/01/25 06:40:13;;;;;;;118.43;49.50;;;-2.00;99.90;;;;;;4994593;28;20192;-83
2022/01/25 06:42:40;;;;;;;122.93;48.73;;;-2.00;99.90;;;;;;4989693;28;20268;-82
2022/01/25 06:45:14;;;;;;;99.57;42.17;;;-1.90;99.90;;;;;;4988702;28;20202;-83
2022/01/25 06:47:42;;;;;;;107.90;47.60;;;-1.90;99.90;;;;;;4994964;28;20242;-83
2022/01/25 06:50:09;;;;;;;109.93;42.70;;;-0.70;99.90;;;;;;4985805;28;20187;-81
2022/01/25 06:52:37;;;;;;;119.50;45.57;;;-1.80;99.90;;;;;;4986298;28;20308;-82
2022/01/25 06:55:05;;;;;;;115.43;47.93;;;-1.80;99.90;;;;;;4994232;28;20191;-81
2022/01/25 06:57:31;;;;;;;100.87;44.60;;;-0.60;99.90;;;;;;4991888;28;20719;-83
2022/01/25 06:59:56;;;;;;;117.77;48.87;;;0.10;99.90;;;;;;4991105;28;20222;-83
2022/01/25 07:02:22;;;;;;;107.27;42.37;;;-0.80;99.90;;;;;;4994525;28;20208;-82
2022/01/25 07:04:48;;;;;;;121.73;50.63;;;-1.70;99.90;;;;;;4972832;28;20202;-83
2022/01/25 07:07:13;;;;;;;104.47;45.43;;;0.20;99.90;;;;;;4994218;28;20192;-82
2022/01/25 07:09:39;;;;;;;93.93;38.77;;;-1.50;99.90;;;;;;4989051;28;20203;-83
2022/01/25 07:12:05;;;;;;;128.50;47.33;;;-1.60;99.90;;;;;;4990340;28;20227;-81
2022/01/25 07:14:31;;;;;;;105.80;45.73;;;-1.50;99.90;;;;;;4992654;28;20241;-83
2022/01/25 07:16:57;;;;;;;105.60;46.10;;;-0.10;99.90;;;;;;4989253;28;20193;-82
2022/01/25 07:19:24;;;;;;;112.00;44.77;;;-1.50;99.90;;;;;;4991210;28;20262;-82
2022/01/25 07:21:49;;;;;;;106.70;45.30;;;-1.40;99.90;;;;;;4990729;28;20194;-82
2022/01/25 07:24:15;;;;;;;138.80;51.70;;;-0.20;99.90;;;;;;4993912;28;20190;-82
2022/01/25 07:26:41;;;;;;;137.27;52.23;;;-0.90;99.90;;;;;;4976834;28;20194;-82
2022/01/25 07:29:06;;;;;;;107.13;40.20;;;-0.20;99.90;;;;;;4976934;28;20195;-83
2022/01/25 07:31:32;;;;;;;121.97;46.67;;;-0.70;99.90;;;;;;4994055;28;20204;-82
2022/01/25 07:33:58;;;;;;;133.43;49.30;;;-1.30;99.90;;;;;;4976061;28;20652;-82
2022/01/25 07:36:23;;;;;;;116.83;47.17;;;0.30;99.90;;;;;;4992887;28;20632;-83
2022/01/25 07:38:49;;;;;;;107.97;46.37;;;-1.30;99.90;;;;;;4976630;28;20194;-83
2022/01/25 07:41:15;;;;;;;123.20;49.80;;;-1.20;99.90;;;;;;4994023;28;20277;-85
2022/01/25 07:43:40;;;;;;;137.03;53.57;;;-1.20;99.90;;;;;;4992930;28;20312;-83
2022/01/25 07:46:06;;;;;;;122.53;51.03;;;-0.80;99.90;;;;;;4993952;28;20190;-82
2022/01/25 07:48:32;;;;;;;127.07;49.53;;;-0.20;99.90;;;;;;4978799;28;20192;-82
2022/01/25 07:50:57;;;;;;;133.27;52.70;;;-1.20;99.90;;;;;;4989967;28;20189;-82
2022/01/25 07:53:23;;;;;;;126.70;51.30;;;0.30;99.90;;;;;;4987106;28;20600;-82
2022/01/25 07:55:49;;;;;;;117.27;47.63;;;-1.10;99.90;;;;;;4996182;28;20193;-82
2022/01/25 07:58:14;;;;;;;129.03;48.57;;;0.60;99.90;;;;;;5014659;28;20612;-82
2022/01/25 08:00:40;;;;;;;132.87;52.63;;;-1.00;99.90;;;;;;4963999;28;20190;-83
2022/01/25 08:03:06;;;;;;;132.33;48.97;;;-1.00;99.90;;;;;;4978040;28;20562;-82
2022/01/25 08:05:32;;;;;;;128.07;49.93;;;-0.40;99.90;;;;;;4997043;28;20190;-84
2022/01/25 08:08:00;;;;;;;120.67;49.67;;;-0.90;99.90;;;;;;4997534;28;20201;-83
2022/01/25 08:10:26;;;;;;;132.60;48.20;;;-0.90;99.90;;;;;;4997362;28;20190;-84
2022/01/25 08:12:52;;;;;;;122.27;49.33;;;0.30;99.90;;;;;;4999290;28;20217;-83
2022/01/25 08:15:18;;;;;;;131.93;49.50;;;-0.80;99.90;;;;;;4987198;28;20259;-85
2022/01/25 08:17:44;;;;;;;119.27;46.83;;;2.00;99.90;;;;;;4994250;28;20193;-85
2022/01/25 08:20:10;;;;;;;119.53;48.53;;;-0.80;99.90;;;;;;5002092;28;20269;-85
2022/01/25 08:22:36;;;;;;;110.73;44.93;;;1.30;99.90;;;;;;4996863;28;20196;-85
2022/01/25 08:27:38;;;;;;;108.10;47.00;;;-0.70;99.90;;;;;;5151365;22;20310;-84
2022/01/25 08:30:04;;;;;;;112.90;48.17;;;1.80;99.90;;;;;;5044464;28;20190;-85
2022/01/25 08:32:31;;;;;;;108.33;45.20;;;-0.60;99.90;;;;;;5061636;28;20238;-84
2022/01/25 08:34:57;;;;;;;120.17;46.83;;;-0.20;99.90;;;;;;5051413;28;20182;-84
2022/01/25 08:37:23;;;;;;;103.43;38.07;;;-0.20;99.90;;;;;;5060138;28;20168;-87
2022/01/25 08:39:49;;;;;;;120.80;47.93;;;-0.20;99.90;;;;;;5075936;28;20197;-87
2022/01/25 08:42:15;;;;;;;120.70;47.40;;;1.20;99.90;;;;;;5076308;28;20194;-85
2022/01/25 08:44:41;;;;;;;106.57;42.10;;;-0.40;99.90;;;;;;5053001;28;20189;-85
2022/01/25 08:47:07;;;;;;;114.13;46.00;;;1.30;99.90;;;;;;5025912;28;20252;-84
2022/01/25 08:49:34;;;;;;;108.30;42.30;;;-0.30;99.90;;;;;;5068881;28;20186;-84
2022/01/25 08:52:00;;;;;;;107.97;46.13;;;1.40;99.90;;;;;;5055904;28;20442;-87
2022/01/25 08:54:26;;;;;;;98.70;42.30;;;0.90;99.90;;;;;;5074962;28;20226;-86
2022/01/25 08:56:56;;;;;;;90.47;35.77;;;-0.20;99.90;;;;;;5074112;28;20196;-85
2022/01/25 08:59:22;;;;;;;93.93;40.33;;;0.40;99.90;;;;;;5073026;28;20174;-85
2022/01/25 09:01:48;;;;;;;101.70;42.20;;;2.20;99.90;;;;;;5038075;28;20203;-86
2022/01/25 09:04:14;;;;;;;98.90;41.23;;;2.20;99.90;;;;;;5033304;28;20195;-83
2022/01/25 09:06:40;;;;;;;96.93;41.30;;;0.10;99.90;;;;;;5053629;28;20290;-82
2022/01/25 09:09:09;;;;;;;91.57;38.90;;;2.00;99.90;;;;;;5036284;28;20694;-83
2022/01/25 09:11:36;;;;;;;101.27;41.57;;;0.30;99.90;;;;;;5033267;28;20281;-84
2022/01/25 09:14:02;;;;;;;97.77;42.43;;;0.80;99.90;;;;;;5057029;28;20181;-82
2022/01/25 09:16:28;;;;;;;86.07;38.57;;;0.40;99.90;;;;;;5051155;28;20204;-84
2022/01/25 09:18:53;;;;;;;90.57;38.70;;;0.40;99.90;;;;;;5037660;28;20711;-85
2022/01/25 09:21:19;;;;;;;96.30;37.33;;;0.30;99.90;;;;;;5039651;28;20555;-84
2022/01/25 09:23:45;;;;;;;97.77;38.60;;;0.30;99.90;;;;;;5016021;28;20253;-83
2022/01/25 09:26:11;;;;;;;89.80;38.07;;;0.40;99.90;;;;;;5028388;28;20306;-83
2022/01/25 09:28:37;;;;;;;86.07;35.23;;;2.60;99.90;;;;;;5016480;28;20203;-84
2022/01/25 09:31:03;;;;;;;99.13;39.30;;;0.40;99.90;;;;;;5045370;28;20194;-85
2022/01/25 09:33:29;;;;;;;97.17;38.87;;;1.00;99.90;;;;;;5029821;28;20225;-86
2022/01/25 09:35:56;;;;;;;87.50;37.83;;;1.70;99.90;;;;;;5044442;28;20240;-83
2022/01/25 09:38:22;;;;;;;95.87;42.70;;;1.70;99.90;;;;;;5032659;28;20809;-84
2022/01/25 09:40:49;;;;;;;97.60;40.67;;;0.50;99.90;;;;;;5050417;28;20203;-83
2022/01/25 09:43:15;;;;;;;87.53;36.80;;;0.60;99.90;;;;;;5034372;28;20198;-84
2022/01/25 09:45:41;;;;;;;95.53;38.07;;;0.60;99.90;;;;;;5034002;28;20176;-84
2022/01/25 09:48:08;;;;;;;88.97;35.40;;;1.80;99.90;;;;;;5034205;28;20183;-85
2022/01/25 09:50:35;;;;;;;89.07;34.03;;;1.60;99.90;;;;;;5052016;28;20291;-86
2022/01/25 09:53:02;;;;;;;86.37;35.93;;;0.60;99.90;;;;;;5033865;28;20215;-84
2022/01/25 09:55:32;;;;;;;84.30;34.40;;;0.80;99.90;;;;;;5033764;28;20195;-84
2022/01/25 09:57:58;;;;;;;93.87;39.20;;;2.20;99.90;;;;;;5038645;28;20283;-83
2022/01/25 10:00:28;;;;;;;82.40;32.30;;;0.80;99.90;;;;;;5019128;28;20199;-86
2022/01/25 10:03:41;;;;;;;79.30;33.70;;;2.60;99.90;;;;;;5050508;28;20177;-85
2022/01/25 10:05:43;;;;;;;92.80;37.73;;;0.80;99.90;;;;;;5038475;28;20191;-84
2022/01/25 10:08:12;;;;;;;85.90;34.40;;;0.80;99.90;;;;;;5039865;28;20183;-83
2022/01/25 10:10:46;;;;;;;88.07;33.80;;;1.80;99.90;;;;;;5038644;28;20172;-84
2022/01/25 10:13:23;;;;;;;85.33;32.47;;;0.90;99.90;;;;;;5057530;28;20217;-86
2022/01/25 10:16:03;;;;;;;81.67;33.50;;;2.40;99.90;;;;;;5040259;28;20194;-84
2022/01/25 10:18:41;;;;;;;80.40;33.87;;;0.80;99.90;;;;;;5048258;28;20174;-85
2022/01/25 10:21:28;;;;;;;77.93;32.07;;;1.50;99.90;;;;;;5051020;28;20194;-86
2022/01/25 10:24:10;;;;;;;76.50;31.93;;;1.00;99.90;;;;;;5040127;28;20179;-83
2022/01/25 10:27:01;;;;;;;74.20;30.27;;;1.00;99.90;;;;;;5046391;28;20233;-84
2022/01/25 10:29:36;;;;;;;74.33;29.17;;;1.00;99.90;;;;;;5037160;28;20181;-86
2022/01/25 10:32:06;;;;;;;52.17;21.97;;;1.10;99.90;;;;;;5018245;28;20295;-83
2022/01/25 10:34:41;;;;;;;63.90;29.17;;;1.10;99.90;;;;;;5054750;28;20208;-84
2022/01/25 10:37:15;;;;;;;75.47;34.37;;;1.10;99.90;;;;;;5056472;28;20203;-84
2022/01/25 10:39:47;;;;;;;74.80;31.10;;;1.20;99.90;;;;;;5069551;28;20177;-85
2022/01/25 10:42:25;;;;;;;78.00;32.40;;;1.20;99.90;;;;;;5071545;28;20578;-84
2022/01/25 10:45:00;;;;;;;76.70;33.83;;;1.20;99.90;;;;;;5040151;28;20184;-82
2022/01/25 10:47:44;;;;;;;71.00;31.30;;;1.30;99.90;;;;;;5040926;28;20308;-83
2022/01/25 10:50:46;;;;;;;69.70;32.00;;;1.30;99.90;;;;;;5035720;28;20278;-83
2022/01/25 10:53:17;;;;;;;67.27;29.57;;;1.40;99.90;;;;;;5023116;28;20311;-83
2022/01/25 10:55:48;;;;;;;74.47;32.00;;;2.10;99.90;;;;;;5039384;28;20187;-84
2022/01/25 10:58:17;;;;;;;59.80;27.47;;;1.40;99.90;;;;;;5037823;28;20183;-83
2022/01/25 11:00:46;;;;;;;50.97;24.80;;;1.40;99.90;;;;;;5036835;28;20179;-86
2022/01/25 11:03:35;;;;;;;62.97;27.73;;;1.40;99.90;;;;;;5062828;28;20244;-84
2022/01/25 11:06:15;;;;;;;58.63;28.60;;;1.40;99.90;;;;;;5041367;28;20180;-83
2022/01/25 11:08:43;;;;;;;68.53;29.00;;;1.40;99.90;;;;;;5045215;28;20179;-85
2022/01/25 11:11:11;;;;;;;63.33;28.03;;;1.50;99.90;;;;;;5040737;28;20182;-84
2022/01/25 11:13:41;;;;;;;58.43;26.57;;;1.80;99.90;;;;;;5063412;28;20215;-84
2022/01/25 11:16:12;;;;;;;63.60;29.13;;;1.50;99.90;;;;;;5064384;28;20179;-84
2022/01/25 11:18:39;;;;;;;65.10;25.97;;;2.20;99.90;;;;;;5036320;28;20180;-85
2022/01/25 11:21:10;;;;;;;47.87;20.40;;;1.50;99.90;;;;;;5039075;28;20184;-84
2022/01/25 11:23:44;;;;;;;65.33;26.97;;;1.60;99.90;;;;;;5038577;28;20245;-84
2022/01/25 11:26:19;;;;;;;55.37;26.70;;;1.50;99.90;;;;;;5060037;28;20222;-84
2022/01/25 11:28:51;;;;;;;62.13;27.77;;;1.50;99.90;;;;;;5051685;28;20195;-84
2022/01/25 11:31:39;;;;;;;64.60;30.10;;;1.50;99.90;;;;;;5032715;28;20228;-85
2022/01/25 11:34:11;;;;;;;60.50;27.70;;;1.60;99.90;;;;;;5063687;28;20214;-84
2022/01/25 11:36:52;;;;;;;63.47;27.87;;;1.60;99.90;;;;;;5066239;28;20259;-84
2022/01/25 11:39:23;;;;;;;57.53;25.80;;;1.60;99.90;;;;;;5069473;28;20174;-84
2022/01/25 11:41:49;;;;;;;52.97;24.10;;;1.60;99.90;;;;;;5055179;28;20184;-84
2022/01/25 11:44:19;;;;;;;72.03;30.10;;;2.10;99.90;;;;;;5040947;28;20525;-84
2022/01/25 11:46:49;;;;;;;47.20;22.20;;;1.70;99.90;;;;;;5055001;28;20182;-84
2022/01/25 11:49:20;;;;;;;51.37;22.50;;;1.70;99.90;;;;;;5037165;28;20206;-84
2022/01/25 11:52:05;;;;;;;50.67;22.70;;;2.20;99.90;;;;;;5054770;28;20636;-84
2022/01/25 11:54:31;;;;;;;52.17;22.40;;;1.70;99.90;;;;;;5055428;28;20220;-85
2022/01/25 11:57:15;;;;;;;44.07;17.77;;;1.80;99.90;;;;;;5039286;28;20268;-84
2022/01/25 11:59:57;;;;;;;47.80;21.73;;;1.80;99.90;;;;;;5034483;28;20179;-82
2022/01/25 12:02:39;;;;;;;44.27;21.17;;;1.80;99.90;;;;;;5032245;28;20634;-86
2022/01/25 12:05:08;;;;;;;41.50;20.40;;;-0.30;99.90;;;;;;5061242;28;20202;-83
2022/01/25 12:07:43;;;;;;;45.37;21.93;;;1.70;99.90;;;;;;5036161;28;20176;-84
2022/01/25 12:10:34;;;;;;;46.97;20.17;;;1.70;99.90;;;;;;5042101;28;20174;-86
2022/01/25 12:13:09;;;;;;;45.37;22.23;;;1.70;99.90;;;;;;5064073;28;20420;-88
2022/01/25 12:15:35;;;;;;;46.47;19.83;;;;;;;;;;5060859;28;20179;-87
2022/01/25 12:18:02;;;;;;;48.70;23.27;;;;;;;;;;5028301;28;20681;-85
2022/01/25 12:20:28;;;;;;;41.67;19.10;;;1.60;99.90;;;;;;5050359;28;20181;-85
2022/01/25 12:23:12;;;;;;;30.87;16.00;;;1.70;99.90;;;;;;5023983;28;20550;-84
2022/01/25 12:25:53;;;;;;;39.57;18.17;;;1.80;99.90;;;;;;5050179;28;20175;-86
2022/01/25 12:28:27;;;;;;;43.03;18.83;;;1.70;99.90;;;;;;5052435;28;20171;-86
2022/01/25 12:30:54;;;;;;;38.80;18.57;;;;;;;;;;5038834;28;20179;-86
2022/01/25 12:33:32;;;;;;;39.57;20.20;;;1.80;99.90;;;;;;5037742;28;20208;-85
2022/01/25 12:36:13;;;;;;;40.20;19.17;;;;;;;;;;5035660;28;20180;-89
2022/01/25 12:38:44;;;;;;;37.03;18.57;;;1.80;99.90;;;;;;5024048;28;20189;-87
2022/01/25 12:41:15;;;;;;;35.97;19.83;;;3.40;99.90;;;;;;5048491;28;20183;-86
2022/01/25 12:43:54;;;;;;;37.20;16.63;;;2.30;99.90;;;;;;5032410;28;20187;-85
2022/01/25 12:46:24;;;;;;;39.07;17.50;;;1.80;99.90;;;;;;5022579;28;20180;-86
2022/01/25 12:48:53;;;;;;;32.03;16.10;;;1.80;99.90;;;;;;5050368;28;20592;-86
2022/01/25 12:51:36;;;;;;;38.87;19.23;;;1.70;99.90;;;;;;5060667;28;20191;-84
2022/01/25 12:54:08;;;;;;;37.90;18.93;;;1.70;99.90;;;;;;5068614;28;20187;-83
2022/01/25 12:56:46;;;;;;;33.40;18.53;;;1.70;99.90;;;;;;5040528;28;20191;-85
2022/01/25 12:59:20;;;;;;;24.77;13.13;;;1.70;99.90;;;;;;5037832;28;20621;-86
2022/01/25 13:01:50;;;;;;;36.83;19.13;;;1.80;99.90;;;;;;5061249;28;20181;-87
2022/01/25 13:04:16;;;;;;;31.57;15.97;;;;;;;;;;5046694;28;20185;-86
2022/01/25 13:06:48;;;;;;;32.63;15.77;;;1.70;99.90;;;;;;5054358;28;20186;-85
2022/01/25 13:17:14;;;;;;;39.60;18.53;;;1.70;99.90;;;;;;5052748;28;20200;-88
2022/01/25 13:19:47;;;;;;;38.57;16.37;;;1.70;99.90;;;;;;5034735;28;20187;-87
2022/01/25 13:22:17;;;;;;;31.67;15.67;;;1.70;99.90;;;;;;5062910;28;20179;-85
2022/01/25 13:25:11;;;;;;;34.10;17.13;;;1.70;99.90;;;;;;5057928;28;20182;-85
2022/01/25 13:27:50;;;;;;;35.50;16.87;;;1.60;99.90;;;;;;5059963;28;20223;-85
2022/01/25 13:33:07;;;;;;;33.43;16.10;;;2.40;99.90;;;;;;5060916;28;20280;-84
2022/01/25 13:35:36;;;;;;;34.40;16.07;;;3.30;99.90;;;;;;5046021;28;20545;-87
2022/01/25 13:38:18;;;;;;;35.20;16.43;;;3.20;99.90;;;;;;5036902;28;20187;-86
2022/01/25 13:41:01;;;;;;;27.33;13.57;;;1.70;99.90;;;;;;5063283;28;20183;-86
2022/01/25 13:46:30;;;;;;;32.37;17.63;;;1.70;99.90;;;;;;5058271;28;20249;-86
2022/01/25 13:49:03;;;;;;;33.93;15.77;;;1.70;99.90;;;;;;5042627;28;20191;-87
2022/01/25 13:51:36;;;;;;;38.03;15.80;;;1.80;99.90;;;;;;5049225;28;20256;-87
2022/01/25 13:54:03;;;;;;;30.60;16.10;;;1.60;99.90;;;;;;5016194;28;20202;-86
2022/01/25 13:56:32;;;;;;;36.20;15.40;;;1.60;99.90;;;;;;5049906;28;20321;-87
2022/01/25 13:58:59;;;;;;;33.97;15.97;;;1.60;99.90;;;;;;5050379;28;20270;-86
2022/01/25 14:01:27;;;;;;;30.80;15.10;;;1.60;99.90;;;;;;5060721;28;20171;-86
2022/01/25 14:04:05;;;;;;;28.50;14.93;;;1.70;99.90;;;;;;5041413;28;20209;-86
2022/01/25 14:06:38;;;;;;;29.20;14.20;;;1.70;99.90;;;;;;5041206;28;20231;-87
2022/01/25 14:09:27;;;;;;;36.60;15.33;;;3.00;99.90;;;;;;5046944;28;20171;-88
2022/01/25 14:21:39;;;;;;;25.57;13.97;;;1.60;99.90;;;;;;5069821;28;20167;-86
2022/01/25 14:25:47;;;;;;;29.70;15.43;;;1.60;99.90;;;;;;5059476;28;20308;-84
2022/01/25 14:28:16;;;;;;;34.23;15.43;;;1.90;99.90;;;;;;5050711;28;20175;-84
2022/01/25 14:30:46;;;;;;;28.03;12.93;;;1.70;99.90;;;;;;5070198;28;20171;-85
2022/01/25 14:33:17;;;;;;;33.17;17.63;;;1.60;99.90;;;;;;5066156;28;20207;-86
2022/01/25 14:36:04;;;;;;;39.77;17.93;;;1.60;99.90;;;;;;5066482;28;20182;-85
2022/01/25 14:38:40;;;;;;;32.47;16.90;;;1.50;99.90;;;;;;5066191;28;20258;-87
2022/01/25 14:41:19;;;;;;;33.07;17.27;;;1.50;99.90;;;;;;5061188;28;20195;-85
2022/01/25 14:43:50;;;;;;;36.03;15.90;;;1.50;99.90;;;;;;5054563;28;20229;-85
2022/01/25 14:46:22;;;;;;;33.67;17.50;;;2.30;99.90;;;;;;5053912;28;20212;-85
2022/01/25 14:49:09;;;;;;;35.17;17.63;;;2.60;99.90;;;;;;5055155;28;20172;-87
2022/01/25 14:51:42;;;;;;;30.90;15.83;;;1.50;99.90;;;;;;5056933;28;20176;-87
2022/01/25 14:54:10;;;;;;;32.67;15.47;;;1.50;99.90;;;;;;5044640;28;20281;-86
2022/01/25 14:56:38;;;;;;;35.20;17.23;;;1.40;99.90;;;;;;5038630;28;20176;-86